createdAt,value
2019-02-08T00:00:31.153Z,94637.58
2019-02-08T00:02:59.864Z,94634.67
2019-02-08T00:05:28.509Z,94626.51
2019-02-08T00:07:57.193Z,94634.80
2019-02-08T00:10:25.860Z,94631.50
2019-02-08T00:12:55.113Z,94630.31
2019-02-08T00:15:24.408Z,94631.89
2019-02-08T00:17:53.236Z,94623.20
2019-02-08T00:20:22.849Z,94623.55
2019-02-08T00:22:51.513Z,94618.94
2019-02-08T00:25:23.796Z,94618.73
2019-02-08T00:27:52.482Z,94619.52
2019-02-08T00:30:25.963Z,94618.61
2019-02-08T00:32:55.701Z,94623.09
2019-02-08T00:35:24.787Z,94616.94
2019-02-08T00:37:53.580Z,94626.72
2019-02-08T00:40:27.064Z,94623.05
2019-02-08T00:42:57.965Z,94621.92
2019-02-08T00:45:26.774Z,94622.08
2019-02-08T00:47:55.439Z,94624.89
2019-02-08T00:50:25.220Z,94615.70
2019-02-08T00:52:54.286Z,94615.85
2019-02-08T00:55:23.425Z,94618.98
2019-02-08T00:57:52.427Z,94618.93
2019-02-08T01:00:22.744Z,94612.14
2019-02-08T01:02:53.624Z,94611.63
2019-02-08T01:05:27.416Z,94612.48
2019-02-08T01:07:56.777Z,94604.66
2019-02-08T01:10:28.130Z,94605.45
2019-02-08T01:12:57.402Z,94601.73
2019-02-08T01:15:27.379Z,94599.72
2019-02-08T01:17:56.252Z,94603.94
2019-02-08T01:20:26.658Z,94604.93
2019-02-08T01:22:55.524Z,94596.20
2019-02-08T01:25:26.849Z,94603.26
2019-02-08T01:27:55.652Z,94605.33
2019-02-08T01:30:30.313Z,94605.27
2019-02-08T01:32:59.030Z,94607.53
2019-02-08T01:35:28.612Z,94604.16
2019-02-08T01:37:58.090Z,94596.58
2019-02-08T01:40:29.676Z,94602.25
2019-02-08T01:43:00.221Z,94594.46
2019-02-08T01:45:33.507Z,94593.68
2019-02-08T01:48:03.129Z,94595.09
2019-02-08T01:50:31.886Z,94591.05
2019-02-08T01:53:00.708Z,94584.32
2019-02-08T01:55:29.663Z,94587.91
2019-02-08T01:57:58.393Z,94584.00
2019-02-08T02:00:38.913Z,94586.58
2019-02-08T02:03:09.387Z,94588.02
2019-02-08T02:05:38.652Z,94592.62
2019-02-08T02:08:07.797Z,94590.55
2019-02-08T02:10:41.742Z,94591.63
2019-02-08T02:13:10.834Z,94601.08
2019-02-08T02:15:39.825Z,94597.77
2019-02-08T02:18:09.786Z,94597.78
2019-02-08T02:20:42.863Z,94596.77
2019-02-08T02:23:13.683Z,94594.85
2019-02-08T02:25:42.391Z,94592.66
2019-02-08T02:28:11.271Z,94595.34
2019-02-08T02:30:40.025Z,94589.76
2019-02-08T02:33:11.009Z,94580.34
2019-02-08T02:35:39.889Z,94580.80
2019-02-08T02:38:08.766Z,94582.30
2019-02-08T02:40:38.147Z,94581.85
2019-02-08T02:43:08.017Z,94579.50
2019-02-08T02:45:39.613Z,94578.55
2019-02-08T02:48:09.989Z,94579.78
2019-02-08T02:50:38.655Z,94577.66
2019-02-08T02:53:07.722Z,94580.64
2019-02-08T02:55:36.393Z,94579.45
2019-02-08T02:58:06.278Z,94581.97
2019-02-08T03:00:43.833Z,94574.14
2019-02-08T03:03:14.094Z,94570.21
2019-02-08T03:05:42.885Z,94572.62
2019-02-08T03:08:13.466Z,94569.67
2019-02-08T03:10:42.348Z,94561.27
2019-02-08T03:13:11.938Z,94552.86
2019-02-08T03:15:40.666Z,94552.63
2019-02-08T03:18:09.382Z,94553.52
2019-02-08T03:20:38.174Z,94551.34
2019-02-08T03:23:06.960Z,94544.62
2019-02-08T03:25:35.641Z,94539.59
2019-02-08T03:28:04.721Z,94540.87
2019-02-08T03:30:38.451Z,94537.46
2019-02-08T03:33:07.229Z,94538.69
2019-02-08T03:35:36.257Z,94532.15
2019-02-08T03:38:05.229Z,94535.85
2019-02-08T03:40:34.076Z,94534.23
2019-02-08T03:43:02.850Z,94537.06
2019-02-08T03:45:33.087Z,94533.16
2019-02-08T03:48:01.779Z,94533.83
2019-02-08T03:50:30.445Z,94524.31
2019-02-08T03:52:59.131Z,94523.50
2019-02-08T03:55:27.800Z,94526.86
2019-02-08T03:57:56.477Z,94519.77
2019-02-08T04:00:32.558Z,94522.95
2019-02-08T04:03:01.328Z,94526.65
2019-02-08T04:05:30.307Z,94524.68
2019-02-08T04:07:59.357Z,94531.14
2019-02-08T04:10:28.011Z,94519.33
2019-02-08T04:12:56.692Z,94518.72
2019-02-08T04:15:26.268Z,94520.78
2019-02-08T04:17:55.042Z,94516.42
2019-02-08T04:20:27.236Z,94512.59
2019-02-08T04:22:56.707Z,94509.20
2019-02-08T04:25:26.684Z,94502.30
2019-02-08T04:27:56.291Z,94517.37
2019-02-08T04:30:33.056Z,94514.91
2019-02-08T04:33:03.149Z,94515.20
2019-02-08T04:35:31.816Z,94519.09
2019-02-08T04:38:00.480Z,94517.38
2019-02-08T04:40:29.911Z,94524.60
2019-02-08T04:42:58.599Z,94527.01
2019-02-08T04:45:27.260Z,94524.53
2019-02-08T04:47:55.979Z,94531.48
2019-02-08T04:50:27.317Z,94539.66
2019-02-08T04:52:56.334Z,94537.79
2019-02-08T04:55:25.002Z,94542.05
2019-02-08T04:57:53.687Z,94541.70
2019-02-08T05:00:25.478Z,94547.16
2019-02-08T05:02:54.151Z,94548.23
2019-02-08T05:05:22.916Z,94550.13
2019-02-08T05:07:51.600Z,94546.03
2019-02-08T05:10:30.366Z,94547.19
2019-02-08T05:12:59.043Z,94552.20
2019-02-08T05:15:28.015Z,94549.71
2019-02-08T05:17:56.696Z,94552.39
2019-02-08T05:20:32.569Z,94552.39
2019-02-08T05:23:01.352Z,94565.82
2019-02-08T05:25:30.045Z,94566.45
2019-02-08T05:27:58.724Z,94565.11
2019-02-08T05:30:29.832Z,94567.30
2019-02-08T05:32:58.640Z,94571.68
2019-02-08T05:35:27.996Z,94573.09
2019-02-08T05:37:56.658Z,94573.77
2019-02-08T05:40:25.618Z,94579.42
2019-02-08T05:42:54.310Z,94569.03
2019-02-08T05:45:24.606Z,94571.72
2019-02-08T05:47:53.281Z,94572.55
2019-02-08T05:50:26.896Z,94578.27
2019-02-08T05:52:55.884Z,94579.73
2019-02-08T05:55:27.385Z,94579.22
2019-02-08T05:57:56.155Z,94581.30
2019-02-08T06:00:29.316Z,94580.00
2019-02-08T06:02:58.070Z,94579.73
2019-02-08T06:05:26.840Z,94576.70
2019-02-08T06:07:55.617Z,94573.02
2019-02-08T06:10:24.315Z,94573.69
2019-02-08T06:12:53.025Z,94579.57
2019-02-08T06:15:25.625Z,94550.31
2019-02-08T06:17:54.483Z,94572.06
2019-02-08T06:20:25.071Z,94572.78
2019-02-08T06:22:53.887Z,94572.62
2019-02-08T06:25:23.554Z,94573.70
2019-02-08T06:27:52.730Z,94583.11
2019-02-08T06:30:26.937Z,94587.28
2019-02-08T06:32:55.731Z,94589.37
2019-02-08T06:35:26.394Z,94593.72
2019-02-08T06:37:55.280Z,94596.98
2019-02-08T06:40:26.402Z,94587.42
2019-02-08T06:42:55.493Z,94591.67
2019-02-08T06:45:27.807Z,94591.40
2019-02-08T06:47:57.081Z,94579.73
2019-02-08T06:50:29.207Z,94584.39
2019-02-08T06:52:59.033Z,94584.62
2019-02-08T06:55:27.813Z,94579.73
2019-02-08T06:58:07.270Z,94581.08
2019-02-08T07:00:37.493Z,94574.89
2019-02-08T07:03:14.215Z,94580.73
2019-02-08T07:06:02.506Z,94587.33
2019-02-08T07:08:32.792Z,94584.81
2019-02-08T07:11:09.158Z,94583.77
2019-02-08T07:13:42.347Z,94583.37
2019-02-08T07:16:18.854Z,94582.55
2019-02-08T07:19:04.550Z,94587.86
2019-02-08T07:21:37.766Z,94586.48
2019-02-08T07:24:08.312Z,94586.59
2019-02-08T07:26:38.561Z,94575.80
2019-02-08T07:29:25.450Z,94592.59
2019-02-08T07:32:14.710Z,94591.73
2019-02-08T07:34:47.707Z,94596.95
2019-02-08T07:37:36.826Z,94602.45
2019-02-08T07:40:27.967Z,94606.98
2019-02-08T07:43:01.908Z,94612.44
2019-02-08T07:45:51.040Z,94619.13
2019-02-08T07:48:22.898Z,94624.27
2019-02-08T07:51:09.673Z,94620.69
2019-02-08T07:53:43.176Z,94625.60
2019-02-08T07:56:28.800Z,94622.70
2019-02-08T07:59:08.566Z,94617.77
2019-02-08T08:01:42.896Z,94622.91
2019-02-08T08:04:25.332Z,94623.92
2019-02-08T08:07:05.812Z,94626.80
2019-02-08T08:09:48.247Z,94632.27
2019-02-08T08:12:31.767Z,94622.88
2019-02-08T08:15:02.523Z,94627.73
2019-02-08T08:17:48.233Z,94628.14
2019-02-08T08:20:33.808Z,94632.19
2019-02-08T08:23:04.939Z,94633.08
2019-02-08T08:25:52.522Z,94631.05
2019-02-08T08:28:25.781Z,94637.86
2019-02-08T08:30:59.312Z,94639.48
2019-02-08T08:33:30.970Z,94633.72
2019-02-08T08:36:08.020Z,94631.08
2019-02-08T08:38:45.673Z,94628.44
2019-02-08T08:41:33.817Z,94639.08
2019-02-08T08:44:38.187Z,94633.40
2019-02-08T08:47:30.796Z,94509.16
2019-02-08T08:50:11.325Z,94630.19
2019-02-08T08:52:48.485Z,94626.77
2019-02-08T08:55:32.225Z,94634.59
2019-02-08T08:58:03.870Z,94635.64
2019-02-08T09:00:51.931Z,94636.02
2019-02-08T09:03:44.737Z,94643.59
2019-02-08T09:06:49.407Z,94639.39
2019-02-08T09:09:40.173Z,94648.78
2019-02-08T09:12:11.834Z,94651.92
2019-02-08T09:14:55.453Z,94654.17
2019-02-08T09:17:46.912Z,94662.47
2019-02-08T09:20:41.332Z,94661.56
2019-02-08T09:23:41.879Z,94663.23
2019-02-08T09:26:32.994Z,94658.42
2019-02-08T09:29:10.466Z,94656.80
2019-02-08T09:32:06.068Z,94657.31
2019-02-08T09:34:55.208Z,94657.03
2019-02-08T09:37:41.736Z,94657.44
2019-02-08T09:40:25.002Z,94653.58
2019-02-08T09:43:02.464Z,94656.88
2019-02-08T09:45:53.540Z,94656.27
2019-02-08T09:48:33.868Z,94652.08
2019-02-08T09:51:28.174Z,94650.89
2019-02-08T09:54:05.940Z,94645.28
2019-02-08T09:56:57.043Z,94647.35
2019-02-08T09:59:40.549Z,94644.50
2019-02-08T10:02:27.274Z,94646.36
2019-02-08T10:05:18.417Z,94645.60
2019-02-08T10:08:05.090Z,94639.95
2019-02-08T10:10:56.659Z,94647.28
2019-02-08T10:13:50.971Z,94645.02
2019-02-08T10:16:25.137Z,94637.23
2019-02-08T10:19:19.357Z,94641.53
2019-02-08T10:21:53.954Z,94602.73
2019-02-08T10:24:42.091Z,94644.44
2019-02-08T10:27:31.015Z,94637.84
2019-02-08T10:30:19.087Z,94645.47
2019-02-08T10:33:24.024Z,94644.57
2019-02-08T10:36:30.074Z,94643.37
2019-02-08T10:39:07.490Z,94646.40
2019-02-08T10:41:41.772Z,94645.05
2019-02-08T10:44:34.595Z,94645.49
2019-02-08T10:47:39.526Z,94647.59
2019-02-08T10:50:20.216Z,94639.34
2019-02-08T10:53:14.375Z,94645.31
2019-02-08T10:56:04.076Z,94628.84
2019-02-08T10:58:52.391Z,94637.95
2019-02-08T11:01:46.177Z,94634.08
2019-02-08T11:04:42.108Z,94632.88
2019-02-08T11:07:38.116Z,94636.17
2019-02-08T11:10:33.787Z,94632.75
2019-02-08T11:13:26.433Z,94631.23
2019-02-08T11:16:13.051Z,94633.33
2019-02-08T11:19:17.443Z,94624.36
2019-02-08T11:21:46.931Z,94623.64
2019-02-08T11:24:17.215Z,94623.77
2019-02-08T11:26:46.417Z,94626.31
2019-02-08T11:29:15.246Z,94621.22
2019-02-08T11:31:43.967Z,94599.78
2019-02-08T11:34:12.683Z,94625.72
2019-02-08T11:36:41.476Z,94622.56
2019-02-08T11:39:16.304Z,94621.22
2019-02-08T11:41:46.876Z,94627.22
2019-02-08T11:44:16.157Z,94626.03
2019-02-08T11:46:45.528Z,94621.95
2019-02-08T11:51:49.228Z,94628.56
2019-02-08T11:54:18.223Z,94630.52
2019-02-08T11:56:46.990Z,94628.58
2019-02-08T11:59:15.696Z,94624.08
2019-02-08T12:01:45.092Z,94595.00
2019-02-08T12:04:13.783Z,94624.83
2019-02-08T12:06:42.458Z,94627.98
2019-02-08T12:09:13.441Z,94623.77
2019-02-08T12:11:42.131Z,94623.18
2019-02-08T12:14:10.898Z,94618.22
2019-02-08T12:16:39.572Z,94615.54
2019-02-08T12:19:08.359Z,94611.92
2019-02-08T12:21:37.201Z,94610.27
2019-02-08T12:24:06.133Z,94614.77
2019-02-08T12:26:37.932Z,94612.83
2019-02-08T12:29:05.847Z,94614.16
2019-02-08T12:31:34.536Z,94614.32
2019-02-08T12:34:03.234Z,94614.50
2019-02-08T12:36:32.119Z,94613.88
2019-02-08T12:39:00.862Z,94615.39
2019-02-08T12:41:29.620Z,94612.06
2019-02-08T12:43:58.303Z,94619.71
2019-02-08T12:46:27.000Z,94624.33
2019-02-08T12:48:55.760Z,94614.60
2019-02-08T12:51:24.424Z,94619.56
2019-02-08T12:53:53.111Z,94620.78
2019-02-08T12:56:21.874Z,94619.13
2019-02-08T12:58:50.561Z,94614.02
2019-02-08T13:01:21.156Z,94619.42
2019-02-08T13:03:50.089Z,94614.04
2019-02-08T13:06:18.787Z,94623.94
2019-02-08T13:08:47.468Z,94625.84
2019-02-08T13:11:16.166Z,94619.57
2019-02-08T13:13:44.951Z,94618.68
2019-02-08T13:16:13.967Z,94612.39
2019-02-08T13:18:42.646Z,94582.41
2019-02-08T13:21:11.324Z,94614.63
2019-02-08T13:23:40.020Z,94619.87
2019-02-08T13:26:08.742Z,94581.64
2019-02-08T13:28:37.391Z,94625.27
2019-02-08T13:31:06.359Z,94627.66
2019-02-08T13:33:35.257Z,94627.36
2019-02-08T13:36:05.893Z,94623.91
2019-02-08T13:38:34.561Z,94624.92
2019-02-08T13:41:03.239Z,94615.66
2019-02-08T13:43:32.017Z,94615.38
2019-02-08T13:46:00.740Z,94613.86
2019-02-08T13:48:29.643Z,94618.05
2019-02-08T13:50:58.380Z,94616.42
2019-02-08T13:53:27.059Z,94611.34
2019-02-08T13:55:55.800Z,94611.33
2019-02-08T13:58:24.471Z,94609.52
2019-02-08T14:00:53.259Z,94604.56
2019-02-08T14:03:22.073Z,94609.23
2019-02-08T14:05:51.743Z,94614.70
2019-02-08T14:08:22.058Z,94614.56
2019-02-08T14:10:51.054Z,94611.86
2019-02-08T14:13:19.719Z,94616.34
2019-02-08T14:15:48.439Z,94614.26
2019-02-08T14:18:17.162Z,94609.74
2019-02-08T14:20:45.846Z,94613.05
2019-02-08T14:23:14.529Z,94614.55
2019-02-08T14:25:43.468Z,94614.16
2019-02-08T14:28:12.272Z,94619.97
2019-02-08T14:30:42.957Z,94618.84
2019-02-08T14:33:11.812Z,94618.39
2019-02-08T14:35:41.156Z,94626.59
2019-02-08T14:38:12.908Z,94624.44
2019-02-08T14:40:41.590Z,94628.96
2019-02-08T14:43:10.253Z,94637.81
2019-02-08T14:45:39.031Z,94634.64
2019-02-08T14:48:07.726Z,94632.95
2019-02-08T14:50:36.615Z,94634.09
2019-02-08T14:53:05.700Z,94631.47
2019-02-08T14:55:34.579Z,94634.73
2019-02-08T14:58:08.786Z,94630.87
2019-02-08T15:00:37.468Z,94634.30
2019-02-08T15:03:06.356Z,94634.80
2019-02-08T15:05:35.152Z,94630.10
2019-02-08T15:08:03.886Z,94630.59
2019-02-08T15:10:35.365Z,94633.17
2019-02-08T15:13:04.452Z,94637.85
2019-02-08T15:15:33.988Z,94638.27
2019-02-08T15:18:02.997Z,94638.14
2019-02-08T15:20:36.646Z,94637.98
2019-02-08T15:23:05.889Z,94642.50
2019-02-08T15:25:34.643Z,94648.50
2019-02-08T15:28:03.519Z,94648.17
2019-02-08T15:30:37.208Z,94631.38
2019-02-08T15:33:06.501Z,94647.08
2019-02-08T15:35:35.590Z,94645.89
2019-02-08T15:38:05.149Z,94645.56
2019-02-08T15:40:39.627Z,94652.57
2019-02-08T15:43:09.860Z,94649.75
2019-02-08T15:45:39.489Z,94646.77
2019-02-08T15:48:08.332Z,94652.50
2019-02-08T15:50:37.048Z,94651.89
2019-02-08T15:53:05.879Z,94651.65
2019-02-08T15:55:37.395Z,94657.03
2019-02-08T15:58:06.355Z,94652.55
2019-02-08T16:00:35.079Z,94652.11
2019-02-08T16:03:03.861Z,94654.75
2019-02-08T16:05:32.536Z,94657.11
2019-02-08T16:08:01.473Z,94655.08
2019-02-08T16:10:30.103Z,94619.44
2019-02-08T16:12:58.787Z,94663.65
2019-02-08T16:15:29.388Z,94650.54
2019-02-08T16:17:58.032Z,94670.27
2019-02-08T16:20:31.070Z,94674.09
2019-02-08T16:23:00.570Z,94679.28
2019-02-08T16:25:31.407Z,94682.33
2019-02-08T16:28:00.200Z,94680.59
2019-02-08T16:30:33.963Z,94679.05
2019-02-08T16:33:02.790Z,94677.82
2019-02-08T16:35:31.559Z,94685.80
2019-02-08T16:38:00.228Z,94687.31
2019-02-08T16:40:30.024Z,94682.82
2019-02-08T16:42:58.796Z,94684.17
2019-02-08T16:45:30.214Z,94680.00
2019-02-08T16:48:00.004Z,94679.64
2019-02-08T16:50:31.218Z,94674.16
2019-02-08T16:52:59.902Z,94682.69
2019-02-08T16:55:28.762Z,94681.27
2019-02-08T16:57:57.601Z,94686.28
2019-02-08T17:00:31.469Z,94687.08
2019-02-08T17:03:02.143Z,94691.30
2019-02-08T17:05:31.721Z,94693.80
2019-02-08T17:08:00.411Z,94690.53
2019-02-08T17:10:29.262Z,94690.26
2019-02-08T17:12:58.242Z,94693.14
2019-02-08T17:15:29.506Z,94692.12
2019-02-08T17:17:58.375Z,94697.75
2019-02-08T17:20:32.689Z,94704.02
2019-02-08T17:23:01.363Z,94707.39
2019-02-08T17:25:30.578Z,94703.95
2019-02-08T17:28:00.525Z,94707.05
2019-02-08T17:30:29.514Z,94692.20
2019-02-08T17:32:58.290Z,94712.38
2019-02-08T17:35:29.094Z,94709.48
2019-02-08T17:37:58.210Z,94718.13
2019-02-08T17:40:32.166Z,94714.23
2019-02-08T17:43:00.873Z,94712.17
2019-02-08T17:45:29.530Z,94715.03
2019-02-08T17:47:59.780Z,94716.56
2019-02-08T17:50:29.144Z,94711.73
2019-02-08T17:52:57.919Z,94722.30
2019-02-08T17:55:28.844Z,94724.08
2019-02-08T17:58:03.214Z,94725.56
2019-02-08T18:00:38.787Z,94721.41
2019-02-08T18:03:07.471Z,94723.02
2019-02-08T18:05:36.176Z,94726.47
2019-02-08T18:08:05.691Z,94725.45
2019-02-08T18:10:34.448Z,94734.84
2019-02-08T18:13:03.579Z,94732.08
2019-02-08T18:15:32.312Z,94736.48
2019-02-08T18:18:01.082Z,94734.86
2019-02-08T18:20:35.258Z,94738.95
2019-02-08T18:23:07.399Z,94740.38
2019-02-08T18:25:36.076Z,94741.47
2019-02-08T18:28:10.880Z,94742.08
2019-02-08T18:30:35.961Z,94743.77
2019-02-08T18:33:04.966Z,94733.45
2019-02-08T18:35:33.726Z,94738.78
2019-02-08T18:38:02.400Z,94734.28
2019-02-08T18:40:31.082Z,94735.92
2019-02-08T18:42:59.752Z,94740.20
2019-02-08T18:45:33.862Z,94735.46
2019-02-08T18:48:02.519Z,94734.66
2019-02-08T18:50:33.892Z,94739.38
2019-02-08T18:53:02.562Z,94738.39
2019-02-08T18:55:31.225Z,94740.06
2019-02-08T18:57:59.899Z,94741.63
2019-02-08T19:00:40.055Z,94745.28
2019-02-08T19:03:06.899Z,94749.23
2019-02-08T19:05:35.559Z,94752.41
2019-02-08T19:08:04.955Z,94756.28
2019-02-08T19:10:33.622Z,94753.50
2019-02-08T19:13:02.286Z,94748.66
2019-02-08T19:15:30.951Z,94753.54
2019-02-08T19:17:59.687Z,94752.63
2019-02-08T19:20:29.592Z,94752.39
2019-02-08T19:22:58.456Z,94752.58
2019-02-08T19:25:29.431Z,94757.33
2019-02-08T19:27:58.109Z,94755.08
2019-02-08T19:30:29.916Z,94760.03
2019-02-08T19:32:58.616Z,94759.86
2019-02-08T19:35:27.296Z,94766.92
2019-02-08T19:37:55.970Z,94770.95
2019-02-08T19:40:36.228Z,94768.48
2019-02-08T19:43:05.709Z,94772.07
2019-02-08T19:45:34.778Z,94775.73
2019-02-08T19:48:03.855Z,94772.74
2019-02-08T19:50:35.192Z,94778.05
2019-02-08T19:53:04.864Z,94783.25
2019-02-08T19:55:33.645Z,94778.58
2019-02-08T19:58:02.311Z,94784.30
2019-02-08T20:00:33.558Z,94781.38
2019-02-08T20:03:02.529Z,94775.46
2019-02-08T20:05:31.240Z,94782.28
2019-02-08T20:07:59.951Z,94783.22
2019-02-08T20:10:40.373Z,94789.27
2019-02-08T20:13:09.044Z,94782.08
2019-02-08T20:15:37.813Z,94785.63
2019-02-08T20:18:07.306Z,94786.63
2019-02-08T20:20:35.976Z,94787.23
2019-02-08T20:23:05.975Z,94787.75
2019-02-08T20:25:36.329Z,94790.02
2019-02-08T20:28:05.806Z,94791.94
2019-02-08T20:30:34.880Z,94787.80
2019-02-08T20:33:03.693Z,94784.81
2019-02-08T20:35:32.413Z,94785.91
2019-02-08T20:38:01.421Z,94787.75
2019-02-08T20:40:32.769Z,94789.56
2019-02-08T20:43:01.449Z,94789.19
2019-02-08T20:45:32.315Z,94783.53
2019-02-08T20:48:03.279Z,94784.08
2019-02-08T20:50:32.457Z,94783.14
2019-02-08T20:53:01.737Z,94786.61
2019-02-08T20:55:31.223Z,94752.52
2019-02-08T20:57:59.900Z,94781.75
2019-02-08T21:00:35.979Z,94781.64
2019-02-08T21:03:07.370Z,94777.22
2019-02-08T21:05:36.031Z,94778.67
2019-02-08T21:08:06.314Z,94780.16
2019-02-08T21:10:35.785Z,94775.38
2019-02-08T21:13:06.115Z,94781.94
2019-02-08T21:15:34.878Z,94758.31
2019-02-08T21:18:03.850Z,94775.84
2019-02-08T21:20:32.594Z,94775.52
2019-02-08T21:23:01.333Z,94778.62
2019-02-08T21:25:31.923Z,94785.70
2019-02-08T21:28:00.590Z,94786.55
2019-02-08T21:30:29.301Z,94788.77
2019-02-08T21:32:58.138Z,94781.77
2019-02-08T21:35:26.899Z,94792.00
2019-02-08T21:37:55.715Z,94786.35
2019-02-08T21:40:27.069Z,94783.50
2019-02-08T21:42:57.233Z,94789.56
2019-02-08T21:45:37.701Z,94787.51
2019-02-08T21:48:07.905Z,94788.50
2019-02-08T21:50:36.559Z,94784.69
2019-02-08T21:53:05.527Z,94788.77
2019-02-08T21:55:34.201Z,94790.83
2019-02-08T21:58:02.882Z,94793.74
2019-02-08T22:00:42.502Z,94796.79
2019-02-08T22:03:11.277Z,94790.91
2019-02-08T22:05:45.846Z,94794.27
2019-02-08T22:08:14.515Z,94797.86
2019-02-08T22:10:43.488Z,94799.48
2019-02-08T22:13:12.173Z,94798.08
2019-02-08T22:15:42.921Z,94792.48
2019-02-08T22:18:11.591Z,94796.68
2019-02-08T22:20:40.460Z,94796.54
2019-02-08T22:23:09.162Z,94805.27
2019-02-08T22:25:38.109Z,94805.63
2019-02-08T22:28:06.910Z,94806.64
2019-02-08T22:30:36.513Z,94811.03
2019-02-08T22:33:09.773Z,94812.41
2019-02-08T22:35:38.743Z,94810.51
2019-02-08T22:38:08.997Z,94807.70
2019-02-08T22:40:38.015Z,94805.30
2019-02-08T22:43:07.286Z,94803.27
2019-02-08T22:45:38.169Z,94805.48
2019-02-08T22:48:27.479Z,94806.37
2019-02-08T22:50:56.158Z,94801.95
2019-02-08T22:53:24.845Z,94808.56
2019-02-08T22:55:53.508Z,94806.78
2019-02-08T22:58:22.186Z,94812.67
2019-02-08T23:00:54.081Z,94806.94
2019-02-08T23:03:22.761Z,94805.05
2019-02-08T23:05:51.489Z,94810.00
2019-02-08T23:08:20.262Z,94807.06
2019-02-08T23:10:48.937Z,94804.58
2019-02-08T23:13:17.628Z,94800.14
2019-02-08T23:15:46.319Z,94803.84
2019-02-08T23:18:15.090Z,94804.46
2019-02-08T23:20:43.768Z,94798.39
2019-02-08T23:23:12.501Z,94799.87
2019-02-08T23:25:41.212Z,94797.45
2019-02-08T23:28:09.880Z,94794.77
2019-02-08T23:30:38.553Z,94793.16
2019-02-08T23:33:07.627Z,94789.66
2019-02-08T23:35:42.807Z,94795.06
2019-02-08T23:38:06.896Z,94792.21
2019-02-08T23:40:35.582Z,94798.56
2019-02-08T23:43:04.361Z,94793.69
2019-02-08T23:45:33.070Z,94798.30
2019-02-08T23:48:02.102Z,94793.73
2019-02-08T23:50:30.825Z,94791.75
2019-02-08T23:52:59.506Z,94787.72
2019-02-08T23:55:28.764Z,94790.24
2019-02-08T23:57:57.427Z,94791.05
